Time;durP1;ratioP1;P1;durP2;ratioP2;P2;SDS_P1;SDS_P2;PMS_P1;PMS_P2;Temp;Humidity;BMP_temperature;BMP_pressure;BME280_temperature;BME280_humidity;BME280_pressure;Samples;Min_cycle;Max_cycle;Signal;HPM_P1;HPM_P2
2021/03/01 00:01:26;;;;;;;19.45;7.65;;;4.30;99.90;;;;;;5033841;28;20030;-74
2021/03/01 00:03:52;;;;;;;18.15;7.32;;;4.20;99.90;;;;;;5032275;28;20032;-75
2021/03/01 00:06:17;;;;;;;23.63;7.53;;;4.20;99.90;;;;;;5033495;28;20108;-74
2021/03/01 00:08:43;;;;;;;18.30;7.78;;;4.30;99.90;;;;;;5032741;28;20044;-75
2021/03/01 00:11:08;;;;;;;16.05;7.22;;;4.30;99.90;;;;;;5047645;23;20048;-74
2021/03/01 00:13:34;;;;;;;16.95;7.55;;;4.20;99.90;;;;;;5047226;28;20025;-74
2021/03/01 00:16:00;;;;;;;17.83;7.47;;;4.30;99.90;;;;;;5033702;28;20022;-75
2021/03/01 00:18:25;;;;;;;20.75;8.55;;;4.30;99.90;;;;;;5042284;28;20029;-74
2021/03/01 00:20:51;;;;;;;17.90;7.78;;;4.20;99.90;;;;;;5042239;28;20034;-74
2021/03/01 00:23:16;;;;;;;18.40;7.40;;;4.30;99.90;;;;;;5033996;28;20026;-73
2021/03/01 00:25:42;;;;;;;20.67;9.10;;;4.30;99.90;;;;;;5032487;28;20025;-73
2021/03/01 00:28:09;;;;;;;22.30;7.88;;;4.30;99.90;;;;;;5032753;28;20021;-74
2021/03/01 00:30:35;;;;;;;20.60;9.18;;;4.40;99.90;;;;;;5033978;28;20458;-74
2021/03/01 00:33:00;;;;;;;23.55;9.23;;;4.30;99.90;;;;;;5033846;28;20029;-73
2021/03/01 00:35:26;;;;;;;20.60;8.40;;;4.40;99.90;;;;;;5032408;28;20080;-74
2021/03/01 00:37:52;;;;;;;20.10;9.15;;;4.40;99.90;;;;;;5033305;28;20104;-74
2021/03/01 00:40:18;;;;;;;18.30;7.93;;;4.50;99.90;;;;;;5057010;22;20045;-75
2021/03/01 00:42:44;;;;;;;21.38;9.23;;;4.50;99.90;;;;;;5040472;28;20422;-74
2021/03/01 00:45:10;;;;;;;22.88;8.88;;;4.50;99.90;;;;;;5041983;28;20501;-74
2021/03/01 00:47:36;;;;;;;20.70;8.02;;;4.50;99.90;;;;;;5073301;28;20024;-74
2021/03/01 00:50:02;;;;;;;25.08;10.05;;;4.50;99.90;;;;;;5049847;28;20495;-73
2021/03/01 00:52:28;;;;;;;22.13;9.27;;;4.50;99.90;;;;;;5054461;28;20140;-75
2021/03/01 00:54:59;;;;;;;21.73;8.55;;;4.50;99.90;;;;;;5065853;28;20020;-74
2021/03/01 00:57:25;;;;;;;22.52;10.10;;;4.50;99.90;;;;;;5076900;28;20025;-75
2021/03/01 00:59:50;;;;;;;22.00;8.88;;;4.50;99.90;;;;;;5058909;28;20182;-74
2021/03/01 01:02:16;;;;;;;23.05;8.52;;;4.60;99.90;;;;;;5075932;28;20055;-74
2021/03/01 01:04:42;;;;;;;22.33;9.75;;;4.60;99.90;;;;;;5077063;28;20024;-74
2021/03/01 01:07:07;;;;;;;21.95;9.07;;;4.60;99.90;;;;;;5058865;28;20024;-74
2021/03/01 01:09:33;;;;;;;22.05;9.15;;;4.60;99.90;;;;;;5038651;28;20125;-73
2021/03/01 01:11:58;;;;;;;18.05;8.32;;;4.60;99.90;;;;;;5039475;28;20025;-73
2021/03/01 01:14:24;;;;;;;21.90;9.13;;;4.70;99.90;;;;;;5067936;28;20025;-73
2021/03/01 01:16:50;;;;;;;18.13;8.35;;;4.70;99.90;;;;;;5058459;28;20020;-73
2021/03/01 01:19:16;;;;;;;21.35;8.15;;;4.70;99.90;;;;;;5038808;28;20108;-73
2021/03/01 01:21:41;;;;;;;16.02;7.30;;;4.70;99.90;;;;;;5056083;28;20039;-73
2021/03/01 01:24:07;;;;;;;20.77;7.50;;;4.70;99.90;;;;;;5057674;28;20035;-74
2021/03/01 01:26:33;;;;;;;19.30;7.40;;;4.70;99.90;;;;;;5071270;28;20033;-73
2021/03/01 01:28:58;;;;;;;18.48;6.68;;;4.70;99.90;;;;;;5056253;28;20090;-73
2021/03/01 01:31:24;;;;;;;15.60;6.35;;;4.70;99.90;;;;;;5057157;28;20036;-73
2021/03/01 01:33:50;;;;;;;16.30;6.32;;;4.70;99.90;;;;;;5055936;28;20025;-74
2021/03/01 01:36:16;;;;;;;17.42;6.03;;;4.70;99.90;;;;;;5074579;28;20171;-73
2021/03/01 01:38:42;;;;;;;15.90;6.38;;;4.80;99.90;;;;;;5075366;28;20079;-73
2021/03/01 01:41:07;;;;;;;16.70;6.40;;;4.70;99.90;;;;;;5039884;28;20490;-74
2021/03/01 01:43:33;;;;;;;16.80;6.35;;;4.70;99.90;;;;;;5038079;28;20024;-74
2021/03/01 01:45:58;;;;;;;19.45;7.68;;;4.70;99.90;;;;;;5068523;28;20043;-74
2021/03/01 01:48:24;;;;;;;17.50;6.55;;;4.70;99.90;;;;;;5074898;28;20054;-73
2021/03/01 01:50:50;;;;;;;17.33;6.53;;;4.80;99.90;;;;;;5050194;28;20488;-73
2021/03/01 01:53:15;;;;;;;19.60;7.35;;;4.80;99.90;;;;;;5072711;28;20486;-73
2021/03/01 01:55:41;;;;;;;14.75;6.10;;;4.80;99.90;;;;;;5075234;28;20024;-74
2021/03/01 01:58:06;;;;;;;18.27;6.90;;;4.80;99.90;;;;;;5057818;28;20073;-74
2021/03/01 02:00:45;;;;;;;16.98;7.18;;;4.80;99.90;;;;;;5057362;28;20027;-73
2021/03/01 02:03:29;;;;;;;17.77;6.32;;;4.80;99.90;;;;;;5059788;28;20033;-74
2021/03/01 02:05:59;;;;;;;20.83;7.75;;;4.80;99.90;;;;;;5060337;28;20032;-74
2021/03/01 02:08:32;;;;;;;18.92;6.63;;;4.80;99.90;;;;;;5055217;28;20041;-75
2021/03/01 02:11:09;;;;;;;16.80;6.50;;;4.80;99.90;;;;;;5037289;28;20158;-74
2021/03/01 02:13:45;;;;;;;18.13;6.70;;;4.70;99.90;;;;;;5054773;28;20021;-74
2021/03/01 02:16:22;;;;;;;19.42;7.30;;;4.80;99.90;;;;;;5045358;28;20020;-73
2021/03/01 02:18:47;;;;;;;19.77;7.57;;;4.80;99.90;;;;;;5075005;28;20037;-74
2021/03/01 02:21:14;;;;;;;18.70;7.07;;;4.80;99.90;;;;;;5072657;28;20487;-74
2021/03/01 02:23:40;;;;;;;18.33;7.57;;;4.90;99.90;;;;;;5037355;28;20025;-74
2021/03/01 02:26:16;;;;;;;22.63;8.18;;;4.80;99.90;;;;;;5056552;28;20033;-74
2021/03/01 02:28:48;;;;;;;20.02;8.20;;;4.80;99.90;;;;;;5074724;28;20025;-74
2021/03/01 02:31:15;;;;;;;21.33;8.10;;;4.90;99.90;;;;;;5057114;28;20021;-74
2021/03/01 02:33:46;;;;;;;23.30;8.07;;;4.80;99.90;;;;;;5075445;28;20034;-75
2021/03/01 02:36:30;;;;;;;;;;;;;;;;;;;;;
2021/03/01 02:38:58;;;;;;;23.63;8.43;;;4.90;99.90;;;;;;5073496;28;20044;-75
2021/03/01 02:41:25;;;;;;;25.50;9.85;;;4.90;99.90;;;;;;5054267;28;20056;-74
2021/03/01 02:43:52;;;;;;;24.83;8.52;;;4.90;99.90;;;;;;5066518;28;20153;-74
2021/03/01 02:46:19;;;;;;;24.60;8.68;;;4.90;99.90;;;;;;5040288;28;20467;-75
2021/03/01 02:48:45;;;;;;;23.95;9.70;;;4.90;99.90;;;;;;5036902;28;20031;-74
2021/03/01 02:51:12;;;;;;;24.90;9.10;;;4.90;99.90;;;;;;5059851;28;20013;-74
2021/03/01 02:53:40;;;;;;;27.67;10.05;;;4.90;99.90;;;;;;5074587;28;20100;-74
2021/03/01 02:56:07;;;;;;;22.92;8.98;;;4.90;99.90;;;;;;5075086;28;20052;-74
2021/03/01 02:58:36;;;;;;;19.75;8.95;;;4.90;99.90;;;;;;5074755;28;20017;-74
2021/03/01 03:01:02;;;;;;;25.30;9.02;;;4.90;99.90;;;;;;5073492;28;20035;-74
2021/03/01 03:03:29;;;;;;;22.95;9.30;;;4.90;99.90;;;;;;5073806;28;20498;-75
2021/03/01 03:05:55;;;;;;;23.30;10.00;;;4.90;99.90;;;;;;5074482;28;20122;-74
2021/03/01 03:08:21;;;;;;;25.23;9.93;;;4.90;99.90;;;;;;5073996;28;20028;-74
2021/03/01 03:10:49;;;;;;;24.38;9.63;;;4.90;99.90;;;;;;5074745;28;20048;-74
2021/03/01 03:13:16;;;;;;;22.67;8.70;;;4.90;99.90;;;;;;5070719;22;20190;-74
2021/03/01 03:15:44;;;;;;;24.15;9.15;;;4.90;99.90;;;;;;5065721;28;20021;-74
2021/03/01 03:18:11;;;;;;;29.80;9.85;;;4.90;99.90;;;;;;5074328;28;20447;-74
2021/03/01 03:20:37;;;;;;;23.13;10.13;;;4.90;99.90;;;;;;5074579;28;20032;-74
2021/03/01 03:23:04;;;;;;;20.83;8.25;;;4.90;99.90;;;;;;5058302;28;20040;-73
2021/03/01 03:25:30;;;;;;;22.13;8.38;;;4.90;99.90;;;;;;5054074;28;20036;-75
2021/03/01 03:27:56;;;;;;;22.10;9.10;;;5.00;99.90;;;;;;5068873;28;20078;-74
2021/03/01 03:30:22;;;;;;;20.73;7.95;;;4.90;99.90;;;;;;5064741;28;20021;-74
2021/03/01 03:32:49;;;;;;;24.05;8.68;;;5.00;99.90;;;;;;5204444;22;20047;-74
2021/03/01 03:35:15;;;;;;;19.55;8.38;;;5.00;99.90;;;;;;5116533;27;20484;-74
2021/03/01 03:37:51;;;;;;;20.90;8.98;;;5.40;99.90;;;;;;5135475;27;20027;-75
2021/03/01 03:40:19;;;;;;;18.90;8.15;;;5.00;99.90;;;;;;5135918;28;20027;-75
2021/03/01 03:42:45;;;;;;;18.92;7.32;;;4.90;99.90;;;;;;5135868;27;20027;-75
2021/03/01 03:45:17;;;;;;;21.27;8.32;;;4.90;99.90;;;;;;5134814;28;20027;-74
2021/03/01 03:47:49;;;;;;;17.77;7.40;;;4.90;99.90;;;;;;5135444;27;20027;-75
2021/03/01 03:50:15;;;;;;;19.83;8.38;;;4.90;99.90;;;;;;5135428;28;20072;-75
2021/03/01 03:52:44;;;;;;;21.85;8.38;;;4.90;99.90;;;;;;5133913;28;20015;-75
2021/03/01 03:55:14;;;;;;;23.20;7.55;;;4.90;99.90;;;;;;5134924;28;20376;-74
2021/03/01 03:57:43;;;;;;;19.27;7.75;;;4.80;99.90;;;;;;5135078;27;20058;-75
2021/03/01 04:00:11;;;;;;;21.77;8.63;;;4.80;99.90;;;;;;5134315;28;20293;-74
2021/03/01 04:02:41;;;;;;;21.45;8.35;;;4.80;99.90;;;;;;5134961;27;20023;-75
2021/03/01 04:05:08;;;;;;;22.95;9.13;;;4.80;99.90;;;;;;5134783;27;20388;-74
2021/03/01 04:07:37;;;;;;;25.67;9.32;;;4.80;99.90;;;;;;5134100;27;20030;-74
2021/03/01 04:10:06;;;;;;;20.95;8.45;;;4.80;99.90;;;;;;5133087;28;20027;-74
2021/03/01 04:12:34;;;;;;;23.33;9.25;;;4.80;99.90;;;;;;5132114;28;20015;-74
2021/03/01 04:15:00;;;;;;;25.20;9.27;;;4.90;99.90;;;;;;5123048;28;20027;-74
2021/03/01 04:17:27;;;;;;;27.35;10.90;;;4.80;99.90;;;;;;5132880;28;20031;-74
2021/03/01 04:19:56;;;;;;;28.10;10.38;;;4.90;99.90;;;;;;5134072;27;20549;-74
2021/03/01 04:22:24;;;;;;;22.50;9.77;;;4.90;99.90;;;;;;5134552;27;20051;-74
2021/03/01 04:24:51;;;;;;;26.38;10.75;;;4.90;99.90;;;;;;5133782;28;20072;-74
2021/03/01 04:27:18;;;;;;;26.13;10.20;;;4.90;99.90;;;;;;5134677;27;20034;-74
2021/03/01 04:29:44;;;;;;;29.70;10.45;;;4.90;99.90;;;;;;5154053;27;20511;-74
2021/03/01 04:32:43;;;;;;;26.75;9.40;;;4.90;99.90;;;;;;5139329;27;20442;-74
2021/03/01 04:35:11;;;;;;;26.13;10.18;;;4.80;99.90;;;;;;5114545;27;20088;-74
2021/03/01 04:37:37;;;;;;;33.30;11.13;;;4.90;99.90;;;;;;5138207;27;20012;-74
2021/03/01 04:40:04;;;;;;;26.10;10.43;;;4.80;99.90;;;;;;5137997;27;20030;-74
2021/03/01 04:42:32;;;;;;;28.63;11.30;;;4.80;99.90;;;;;;5136996;27;20437;-74
2021/03/01 04:44:58;;;;;;;26.33;10.07;;;4.80;99.90;;;;;;5130722;22;20067;-74
2021/03/01 04:47:27;;;;;;;28.73;10.88;;;4.80;99.90;;;;;;5097149;28;20020;-74
2021/03/01 04:49:54;;;;;;;28.80;10.80;;;4.80;99.90;;;;;;5089874;28;20064;-74
2021/03/01 04:52:21;;;;;;;29.90;9.98;;;4.90;99.90;;;;;;5076930;28;20028;-74
2021/03/01 04:54:49;;;;;;;29.58;11.10;;;4.80;99.90;;;;;;5096718;28;20047;-74
2021/03/01 04:57:16;;;;;;;25.30;10.77;;;4.90;99.90;;;;;;5113345;28;20012;-74
2021/03/01 04:59:43;;;;;;;30.10;11.18;;;4.80;99.90;;;;;;5095594;28;20020;-75
2021/03/01 05:02:10;;;;;;;27.80;10.75;;;4.80;99.90;;;;;;5096789;28;20020;-74
2021/03/01 05:04:36;;;;;;;26.88;11.18;;;4.80;99.90;;;;;;5076715;28;20028;-74
2021/03/01 05:07:03;;;;;;;27.33;10.65;;;6.60;99.90;;;;;;5076068;28;20074;-74
2021/03/01 05:09:30;;;;;;;30.40;10.05;;;4.80;99.90;;;;;;5079965;28;20523;-74
2021/03/01 05:11:56;;;;;;;30.30;11.57;;;4.80;99.90;;;;;;5111797;22;20424;-75
2021/03/01 05:14:22;;;;;;;30.35;11.75;;;4.60;99.90;;;;;;5116941;28;20027;-75
2021/03/01 05:16:47;;;;;;;30.63;9.95;;;4.70;99.90;;;;;;5117231;28;20028;-75
2021/03/01 05:19:12;;;;;;;28.60;11.05;;;4.70;99.90;;;;;;5136824;27;20490;-75
2021/03/01 05:21:38;;;;;;;29.48;11.65;;;4.70;99.90;;;;;;5128182;22;20072;-74
2021/03/01 05:24:04;;;;;;;29.67;11.20;;;4.70;99.90;;;;;;5078427;28;20056;-75
2021/03/01 05:26:30;;;;;;;33.40;12.02;;;4.60;99.90;;;;;;5096345;28;20046;-74
2021/03/01 05:28:57;;;;;;;31.10;11.75;;;4.70;99.90;;;;;;5089765;28;20029;-74
2021/03/01 05:31:24;;;;;;;31.35;11.35;;;4.60;99.90;;;;;;5076047;28;20012;-75
2021/03/01 05:33:50;;;;;;;29.23;10.85;;;4.60;99.90;;;;;;5058997;28;20074;-74
2021/03/01 05:36:15;;;;;;;32.13;11.20;;;4.60;99.90;;;;;;5091058;28;20021;-74
2021/03/01 05:38:41;;;;;;;29.92;11.77;;;4.60;99.90;;;;;;5095708;28;20027;-75
2021/03/01 05:41:08;;;;;;;31.52;10.77;;;4.50;99.90;;;;;;5088696;28;20067;-74
2021/03/01 05:43:34;;;;;;;29.10;11.38;;;4.50;99.90;;;;;;5058212;28;20017;-74
2021/03/01 05:46:00;;;;;;;34.70;11.73;;;4.50;99.90;;;;;;5079098;28;20024;-75
2021/03/01 05:48:28;;;;;;;28.98;10.48;;;4.50;99.90;;;;;;5088304;23;20048;-74
2021/03/01 05:50:59;;;;;;;32.50;12.07;;;4.50;99.90;;;;;;5077790;28;20385;-73
2021/03/01 05:53:46;;;;;;;32.92;12.40;;;4.50;99.90;;;;;;5077484;28;20054;-74
2021/03/01 05:56:13;;;;;;;28.15;11.60;;;4.50;99.90;;;;;;5094984;28;20485;-74
2021/03/01 05:58:40;;;;;;;27.25;10.55;;;4.60;99.90;;;;;;5095952;28;20023;-74
2021/03/01 06:01:06;;;;;;;25.42;9.65;;;4.50;99.90;;;;;;5095237;28;20028;-73
2021/03/01 06:03:36;;;;;;;24.77;10.15;;;4.50;99.90;;;;;;5095633;28;20099;-74
2021/03/01 06:06:04;;;;;;;24.15;9.40;;;4.50;99.90;;;;;;5095060;28;20111;-74
2021/03/01 06:08:33;;;;;;;27.87;10.43;;;4.50;99.90;;;;;;5077301;28;20020;-73
2021/03/01 06:11:01;;;;;;;26.40;10.32;;;4.40;99.90;;;;;;5095368;28;20043;-74
2021/03/01 06:13:27;;;;;;;28.20;9.70;;;4.40;99.90;;;;;;5095736;28;20470;-74
2021/03/01 06:15:57;;;;;;;22.63;9.02;;;4.40;99.90;;;;;;5094455;28;20485;-73
2021/03/01 06:18:24;;;;;;;22.92;8.25;;;4.40;99.90;;;;;;5094815;28;20051;-76
2021/03/01 06:20:51;;;;;;;23.83;9.93;;;4.40;99.90;;;;;;5095244;28;20024;-76
2021/03/01 06:23:34;;;;;;;32.20;10.52;;;4.40;99.90;;;;;;5094909;28;20032;-75
2021/03/01 06:26:18;;;;;;;28.65;10.73;;;4.30;99.90;;;;;;5095078;28;20028;-74
2021/03/01 06:28:46;;;;;;;22.90;9.25;;;4.30;99.90;;;;;;5095349;28;20020;-73
2021/03/01 06:31:32;;;;;;;26.92;9.73;;;4.30;99.90;;;;;;5076520;28;20046;-75
2021/03/01 06:34:28;;;;;;;25.45;9.57;;;4.30;99.90;;;;;;5077175;28;20016;-74
2021/03/01 06:37:08;;;;;;;26.38;9.50;;;4.30;99.90;;;;;;5076246;28;20486;-73
2021/03/01 06:39:45;;;;;;;25.85;9.57;;;4.30;99.90;;;;;;5095326;28;20031;-73
2021/03/01 06:42:19;;;;;;;27.90;9.63;;;4.30;99.90;;;;;;5094826;28;20490;-74
2021/03/01 06:44:56;;;;;;;21.27;9.55;;;4.30;99.90;;;;;;5076188;28;20420;-75
2021/03/01 06:47:42;;;;;;;22.50;9.18;;;4.30;99.90;;;;;;5094509;28;20034;-75
2021/03/01 06:50:30;;;;;;;23.63;9.18;;;4.30;99.90;;;;;;5075078;28;20486;-74
2021/03/01 06:52:56;;;;;;;25.92;8.95;;;4.30;99.90;;;;;;5094763;28;20039;-74
2021/03/01 06:55:21;;;;;;;24.48;8.77;;;4.80;99.90;;;;;;5094809;28;20040;-74
2021/03/01 06:57:47;;;;;;;33.00;9.98;;;4.30;99.90;;;;;;5076154;28;20059;-75
2021/03/01 07:00:13;;;;;;;27.08;9.80;;;4.30;99.90;;;;;;5072531;28;20020;-78
2021/03/01 07:02:40;;;;;;;29.63;11.50;;;4.30;99.90;;;;;;5079498;28;20028;-74
2021/03/01 07:05:06;;;;;;;30.40;10.65;;;4.20;99.90;;;;;;5093501;28;20478;-77
2021/03/01 07:07:36;;;;;;;27.40;10.00;;;4.20;99.90;;;;;;5093780;28;20089;-78
2021/03/01 07:10:04;;;;;;;29.17;11.27;;;4.30;99.90;;;;;;5076081;28;20027;-76
2021/03/01 07:12:46;;;;;;;34.90;11.50;;;4.40;99.90;;;;;;5094309;28;20099;-77
2021/03/01 07:15:15;;;;;;;30.95;11.52;;;4.40;99.90;;;;;;5094340;28;20058;-77
2021/03/01 07:17:45;;;;;;;34.17;11.02;;;4.50;99.90;;;;;;5077165;28;20020;-76
2021/03/01 07:20:15;;;;;;;29.17;11.85;;;4.50;99.90;;;;;;5094480;28;20107;-78
2021/03/01 07:22:44;;;;;;;27.33;10.68;;;4.50;99.90;;;;;;5076035;28;20158;-79
2021/03/01 07:25:13;;;;;;;25.30;9.20;;;4.40;99.90;;;;;;5076165;28;20036;-79
2021/03/01 07:27:41;;;;;;;31.80;10.50;;;4.50;99.90;;;;;;5076234;28;20031;-79
2021/03/01 07:30:11;;;;;;;30.63;11.07;;;4.50;99.90;;;;;;5075998;28;20390;-76
2021/03/01 07:32:41;;;;;;;27.10;10.57;;;4.50;99.90;;;;;;5076003;28;20499;-76
2021/03/01 07:35:08;;;;;;;23.20;9.57;;;4.50;99.90;;;;;;5094095;28;20020;-76
2021/03/01 07:37:37;;;;;;;22.88;8.82;;;4.50;99.90;;;;;;5076210;28;20024;-75
2021/03/01 07:40:07;;;;;;;;;;;4.50;99.90;;;;;;5094515;28;20024;-75
2021/03/01 07:42:36;;;;;;;24.58;9.75;;;4.40;99.90;;;;;;5093685;28;19903;-75
2021/03/01 07:45:03;;;;;;;;;;;4.40;99.90;;;;;;5076306;28;20024;-74
2021/03/01 07:47:29;;;;;;;22.33;9.32;;;4.40;99.90;;;;;;5075790;28;19912;-74
2021/03/01 07:49:55;;;;;;;24.38;8.70;;;4.40;99.90;;;;;;5093549;28;20030;-75
2021/03/01 07:52:21;;;;;;;24.58;10.00;;;4.40;99.90;;;;;;5093893;28;20032;-75
2021/03/01 07:54:51;;;;;;;24.05;9.60;;;4.40;99.90;;;;;;5093894;28;20024;-75
2021/03/01 07:57:18;;;;;;;24.02;9.57;;;4.40;99.90;;;;;;5093957;28;20489;-76
2021/03/01 07:59:44;;;;;;;20.33;8.35;;;4.40;99.90;;;;;;5093806;28;20058;-75
2021/03/01 08:02:31;;;;;;;20.67;8.05;;;4.50;99.90;;;;;;5077488;28;20024;-75
2021/03/01 08:04:58;;;;;;;19.30;7.53;;;4.40;99.90;;;;;;5097944;28;20030;-74
2021/03/01 08:07:37;;;;;;;21.25;7.55;;;4.40;99.90;;;;;;5079688;28;20027;-75
2021/03/01 08:10:04;;;;;;;20.75;6.70;;;4.30;99.90;;;;;;5097886;28;20424;-74
2021/03/01 08:12:34;;;;;;;19.98;7.50;;;4.30;99.90;;;;;;5097600;28;20016;-76
2021/03/01 08:15:00;;;;;;;17.42;6.63;;;4.30;99.90;;;;;;5079504;28;20069;-75
2021/03/01 08:17:26;;;;;;;20.73;7.05;;;4.20;99.90;;;;;;5079533;28;20027;-75
2021/03/01 08:20:12;;;;;;;16.95;6.78;;;4.20;99.90;;;;;;5097600;28;20024;-74
2021/03/01 08:23:06;;;;;;;22.00;7.28;;;4.10;99.90;;;;;;5086942;28;20125;-76
2021/03/01 08:28:35;;;;;;;19.60;7.30;;;4.20;99.90;;;;;;5097676;28;20070;-75
2021/03/01 08:31:09;;;;;;;21.27;8.23;;;4.20;99.90;;;;;;5097272;28;20104;-75
2021/03/01 08:33:36;;;;;;;21.40;7.13;;;4.20;99.90;;;;;;5097414;28;20028;-75
2021/03/01 08:36:01;;;;;;;19.40;7.47;;;4.20;99.90;;;;;;5079198;28;20160;-75
2021/03/01 08:38:42;;;;;;;17.45;7.13;;;4.20;99.90;;;;;;5097517;28;20484;-75
2021/03/01 08:41:10;;;;;;;17.98;6.20;;;4.20;99.90;;;;;;5079073;28;20023;-75
2021/03/01 08:43:40;;;;;;;18.17;6.50;;;4.20;99.90;;;;;;5097118;28;20054;-76
2021/03/01 08:46:16;;;;;;;18.27;6.70;;;4.20;99.90;;;;;;5097271;28;20021;-76
2021/03/01 08:48:50;;;;;;;20.98;7.57;;;4.20;99.90;;;;;;5096816;28;20036;-75
2021/03/01 08:51:17;;;;;;;17.60;6.47;;;4.20;99.90;;;;;;5079035;28;20023;-75
2021/03/01 08:53:43;;;;;;;20.33;7.05;;;4.30;99.90;;;;;;5078617;28;20374;-75
2021/03/01 08:56:26;;;;;;;18.95;6.55;;;4.30;99.90;;;;;;5096873;28;20021;-76
2021/03/01 08:58:52;;;;;;;19.15;6.80;;;4.40;99.90;;;;;;5097337;28;20020;-76
2021/03/01 09:01:18;;;;;;;18.42;6.03;;;4.40;99.90;;;;;;5096827;28;20021;-76
2021/03/01 09:03:46;;;;;;;22.38;6.85;;;4.40;99.90;;;;;;5097368;28;20106;-75
2021/03/01 09:06:15;;;;;;;18.75;6.95;;;4.40;99.90;;;;;;5078719;28;20020;-75
2021/03/01 09:08:50;;;;;;;17.98;6.95;;;4.50;99.90;;;;;;5110504;22;20127;-75
2021/03/01 09:11:18;;;;;;;18.58;7.50;;;4.50;99.90;;;;;;5079665;28;20082;-75
2021/03/01 09:13:46;;;;;;;21.50;8.07;;;4.60;99.90;;;;;;5077384;28;20016;-75
2021/03/01 09:16:14;;;;;;;18.30;7.43;;;4.60;99.90;;;;;;5078493;28;20055;-76
2021/03/01 09:18:41;;;;;;;20.40;7.90;;;4.70;99.90;;;;;;5096765;28;20385;-76
2021/03/01 09:21:08;;;;;;;21.27;6.57;;;4.80;99.90;;;;;;5096351;28;20020;-75
2021/03/01 09:23:45;;;;;;;18.88;7.13;;;4.90;99.90;;;;;;5111475;22;20048;-75
2021/03/01 09:26:33;;;;;;;24.63;8.75;;;4.90;99.90;;;;;;5097099;28;20146;-75
2021/03/01 09:29:14;;;;;;;17.45;6.35;;;5.90;99.90;;;;;;5096577;28;20024;-76
2021/03/01 09:31:43;;;;;;;18.02;6.97;;;5.00;99.90;;;;;;5095177;28;20031;-76
2021/03/01 09:34:09;;;;;;;;;;;5.10;99.90;;;;;;5095386;28;20115;-76
2021/03/01 09:36:35;;;;;;;17.15;5.95;;;5.20;99.90;;;;;;5095066;28;20377;-76
2021/03/01 09:39:03;;;;;;;22.15;8.25;;;5.20;99.90;;;;;;5096504;28;20031;-75
2021/03/01 09:41:37;;;;;;;23.25;7.55;;;5.20;99.90;;;;;;5101599;22;20371;-78
2021/03/01 09:44:07;;;;;;;18.45;7.95;;;5.30;99.90;;;;;;5096171;28;20020;-76
2021/03/01 09:46:34;;;;;;;19.40;8.55;;;5.40;99.90;;;;;;5095471;28;20111;-77
2021/03/01 09:49:06;;;;;;;19.17;6.60;;;5.90;99.90;;;;;;5077859;28;20153;-76
2021/03/01 09:51:33;;;;;;;20.30;6.88;;;5.60;99.90;;;;;;5095505;28;20023;-77
2021/03/01 09:54:06;;;;;;;21.08;8.45;;;5.60;99.90;;;;;;5094644;28;20013;-77
2021/03/01 09:56:38;;;;;;;18.65;7.80;;;5.70;99.90;;;;;;5095714;28;20016;-76
2021/03/01 09:59:04;;;;;;;19.58;7.30;;;5.80;99.90;;;;;;5095862;28;20111;-76
2021/03/01 10:01:30;;;;;;;19.17;7.18;;;5.80;99.90;;;;;;5095815;28;20043;-77
2021/03/01 10:03:56;;;;;;;20.00;7.35;;;5.90;99.90;;;;;;5094532;28;20016;-76
2021/03/01 10:06:39;;;;;;;23.73;7.80;;;5.80;99.90;;;;;;5095560;28;20039;-75
2021/03/01 10:09:07;;;;;;;25.13;7.60;;;5.80;99.90;;;;;;5095484;28;20493;-75
2021/03/01 10:11:33;;;;;;;25.98;8.85;;;5.90;99.90;;;;;;5095687;28;20023;-75
2021/03/01 10:14:17;;;;;;;21.67;7.90;;;5.90;99.90;;;;;;5096306;28;20044;-76
2021/03/01 10:16:43;;;;;;;20.27;7.75;;;6.00;99.90;;;;;;5096056;28;20489;-76
2021/03/01 10:19:21;;;;;;;20.70;8.02;;;6.10;99.90;;;;;;5096252;28;20094;-75
2021/03/01 10:21:47;;;;;;;19.48;8.02;;;6.20;99.90;;;;;;5096563;28;20031;-77
2021/03/01 10:24:16;;;;;;;20.23;7.47;;;6.20;99.90;;;;;;5094337;28;20012;-76
2021/03/01 10:27:04;;;;;;;23.60;7.40;;;6.30;99.90;;;;;;5094222;28;20027;-76
2021/03/01 10:29:35;;;;;;;21.48;7.22;;;6.80;99.90;;;;;;5094184;28;20090;-76
2021/03/01 10:32:02;;;;;;;14.63;6.43;;;6.50;99.90;;;;;;5077437;28;20031;-76
2021/03/01 10:34:30;;;;;;;18.98;7.35;;;6.50;99.90;;;;;;5094979;28;20400;-77
2021/03/01 10:36:57;;;;;;;21.02;7.63;;;6.50;99.90;;;;;;5093727;28;20023;-76
2021/03/01 10:39:36;;;;;;;18.58;7.93;;;6.50;99.90;;;;;;5095393;28;20390;-77
2021/03/01 10:42:13;;;;;;;20.20;6.95;;;6.60;99.90;;;;;;5076962;28;20028;-77
2021/03/01 10:44:45;;;;;;;18.30;6.00;;;6.60;99.90;;;;;;5093829;28;20031;-77
2021/03/01 10:47:26;;;;;;;19.63;6.20;;;6.70;99.90;;;;;;5093623;28;20106;-76
2021/03/01 10:49:56;;;;;;;12.98;5.55;;;6.80;99.90;;;;;;5093639;28;20024;-77
2021/03/01 10:52:24;;;;;;;14.75;5.70;;;6.80;99.90;;;;;;5076427;28;20023;-76
2021/03/01 10:54:50;;;;;;;15.07;5.93;;;6.90;99.90;;;;;;5094307;28;20020;-77
2021/03/01 10:57:16;;;;;;;13.32;5.53;;;7.10;99.90;;;;;;5093024;28;20478;-77
2021/03/01 10:59:42;;;;;;;12.25;4.80;;;7.20;99.90;;;;;;5093468;28;20020;-77
2021/03/01 11:02:08;;;;;;;14.13;5.72;;;7.30;99.90;;;;;;5095261;28;20023;-77
2021/03/01 11:04:34;;;;;;;13.85;5.10;;;7.40;99.90;;;;;;5094749;28;20407;-76
2021/03/01 11:07:00;;;;;;;16.55;5.57;;;7.40;99.90;;;;;;5101119;22;20059;-77
2021/03/01 11:09:26;;;;;;;13.55;5.05;;;7.60;99.90;;;;;;5063240;28;20417;-75
2021/03/01 11:12:29;;;;;;;11.65;4.32;;;7.60;99.90;;;;;;5074799;28;20115;-75
2021/03/01 11:15:47;;;;;;;16.27;4.97;;;7.60;99.90;;;;;;5074061;28;20103;-74
2021/03/01 11:18:33;;;;;;;12.48;5.20;;;7.70;99.90;;;;;;5065303;28;20703;-75
2021/03/01 11:20:58;;;;;;;11.50;3.95;;;7.80;99.90;;;;;;5073628;28;20111;-76
2021/03/01 11:23:24;;;;;;;15.35;4.75;;;8.00;99.90;;;;;;5075044;28;20020;-76
2021/03/01 11:25:50;;;;;;;14.98;5.05;;;8.00;99.90;;;;;;5075155;28;20054;-76
2021/03/01 11:28:15;;;;;;;12.65;4.45;;;8.10;99.90;;;;;;5074192;28;20036;-77
2021/03/01 11:30:41;;;;;;;15.25;5.85;;;8.20;99.90;;;;;;5073536;28;20546;-77
2021/03/01 11:33:07;;;;;;;14.18;5.30;;;8.90;99.90;;;;;;5074615;28;20067;-75
2021/03/01 11:35:34;;;;;;;15.38;5.45;;;8.20;99.90;;;;;;5075473;28;20095;-77
2021/03/01 11:38:00;;;;;;;13.43;5.25;;;8.40;99.90;;;;;;5072769;28;20500;-75
2021/03/01 11:40:26;;;;;;;16.35;5.00;;;8.60;99.90;;;;;;5073171;28;20024;-77
2021/03/01 11:42:52;;;;;;;14.68;5.35;;;8.80;99.90;;;;;;5073025;28;20020;-75
2021/03/01 11:45:18;;;;;;;15.82;5.70;;;8.90;99.90;;;;;;5073985;28;20024;-76
2021/03/01 11:47:43;;;;;;;14.15;5.30;;;9.00;99.90;;;;;;5074450;28;20028;-76
2021/03/01 11:50:09;;;;;;;12.00;4.78;;;9.20;99.90;;;;;;5072783;28;20032;-75
2021/03/01 11:52:34;;;;;;;13.27;4.38;;;9.00;99.90;;;;;;5074234;28;20021;-75
2021/03/01 11:55:00;;;;;;;14.38;5.22;;;9.10;99.90;;;;;;5073993;28;20504;-77
2021/03/01 11:57:27;;;;;;;18.05;4.68;;;9.20;99.90;;;;;;5074158;28;20056;-77
2021/03/01 11:59:53;;;;;;;11.05;3.95;;;9.20;99.80;;;;;;5072621;28;20024;-75
2021/03/01 12:02:20;;;;;;;15.63;4.40;;;9.40;99.90;;;;;;5072426;28;20035;-77
2021/03/01 12:04:46;;;;;;;14.15;4.85;;;9.50;99.80;;;;;;5073652;28;20020;-77
2021/03/01 12:07:11;;;;;;;13.98;4.38;;;9.70;98.50;;;;;;5073390;28;20055;-76
2021/03/01 12:09:37;;;;;;;14.32;5.00;;;9.90;97.30;;;;;;5071948;28;20054;-76
2021/03/01 12:12:03;;;;;;;11.82;5.05;;;10.10;98.30;;;;;;5073620;28;20013;-75
2021/03/01 12:14:29;;;;;;;11.93;4.45;;;10.30;96.30;;;;;;5093053;23;20044;-77
2021/03/01 12:16:54;;;;;;;13.38;4.88;;;10.50;96.30;;;;;;5075536;28;20107;-77
2021/03/01 12:19:20;;;;;;;15.57;5.15;;;10.80;95.50;;;;;;5082045;28;20032;-77
2021/03/01 12:21:46;;;;;;;17.25;5.40;;;11.00;93.80;;;;;;5093724;28;20562;-75
2021/03/01 12:24:12;;;;;;;17.85;5.50;;;11.00;91.90;;;;;;5093967;28;20020;-76
2021/03/01 12:26:38;;;;;;;15.25;4.88;;;11.10;91.10;;;;;;5092044;28;20430;-75
2021/03/01 12:29:04;;;;;;;15.05;5.25;;;11.10;90.40;;;;;;5093975;28;20085;-79
2021/03/01 12:31:29;;;;;;;13.32;5.53;;;11.10;88.90;;;;;;5093339;28;20020;-78
2021/03/01 12:33:55;;;;;;;15.90;5.85;;;11.20;89.40;;;;;;5092428;28;20050;-78
2021/03/01 12:36:21;;;;;;;11.88;4.38;;;11.30;90.10;;;;;;5093123;28;20469;-78
2021/03/01 12:38:46;;;;;;;12.45;4.28;;;11.50;87.80;;;;;;5093857;28;20016;-77
2021/03/01 12:41:13;;;;;;;14.02;4.50;;;11.70;88.90;;;;;;5093318;28;20016;-78
2021/03/01 12:43:38;;;;;;;12.00;5.20;;;12.00;87.70;;;;;;5092373;28;20043;-74
2021/03/01 12:46:04;;;;;;;14.80;5.13;;;12.20;86.30;;;;;;5092667;28;20020;-77
2021/03/01 12:48:29;;;;;;;16.20;6.35;;;12.40;84.60;;;;;;5092938;28;20074;-75
2021/03/01 12:50:55;;;;;;;11.77;5.15;;;12.60;82.10;;;;;;5096304;28;20089;-75
2021/03/01 12:53:20;;;;;;;10.65;3.80;;;12.60;79.10;;;;;;5096493;28;20016;-77
2021/03/01 12:55:46;;;;;;;12.30;4.03;;;12.70;77.50;;;;;;5095040;28;20016;-77
2021/03/01 12:58:12;;;;;;;12.30;4.60;;;12.70;78.10;;;;;;5094921;28;20020;-74